« Back
NWS Peachtree City, Ga » Text Product » AHN Terminal Aerodrome Forecast


Printer-friendly Version
Current Version              Previous Versions:   1  2  3  4  5  6  7  8  9  

Terminal Aerodrome Forecast

509
FTUS42 KFFC 290500
TAFAHN
TAF
KAHN 290540Z 2906/3006 00000KT P6SM FEW250
     FM291600 17004KT P6SM FEW060 FEW250
     FM300000 00000KT P6SM SCT070 SCT250=



USA.gov is the U.S. government's official web portal to all federal, state and local government web resources and services.